Time;durP1;ratioP1;P1;durP2;ratioP2;P2;SDS_P1;SDS_P2;PMS_P1;PMS_P2;Temp;Humidity;BMP_temperature;BMP_pressure;BME280_temperature;BME280_humidity;BME280_pressure;Samples;Min_cycle;Max_cycle;Signal;HPM_P1;HPM_P2
2022/12/04 00:01:26;;;;;;;46.88;19.20;;;5.40;99.90;;;;;;6137274;23;20021;-75
2022/12/04 00:03:57;;;;;;;43.00;19.27;;;5.80;99.90;;;;;;6160508;23;20450;-76
2022/12/04 00:06:26;;;;;;;46.60;19.13;;;5.60;99.90;;;;;;6162300;23;20028;-75
2022/12/04 00:08:54;;;;;;;39.33;18.65;;;5.50;99.90;;;;;;6187722;23;20419;-76
2022/12/04 00:11:23;;;;;;;;;;;5.50;99.90;;;;;;6160915;23;20024;-75
2022/12/04 00:13:51;;;;;;;42.95;19.23;;;5.60;99.90;;;;;;6187756;23;19916;-76
2022/12/04 00:16:22;;;;;;;44.90;19.10;;;5.50;99.90;;;;;;6196671;23;20189;-76
2022/12/04 00:18:51;;;;;;;44.38;19.38;;;5.50;99.90;;;;;;6187123;23;20028;-76
2022/12/04 00:21:20;;;;;;;40.28;18.85;;;5.50;99.90;;;;;;6161883;23;20040;-76
2022/12/04 00:23:48;;;;;;;38.80;19.00;;;5.50;99.90;;;;;;6185219;23;20017;-75
2022/12/04 00:26:22;;;;;;;42.42;19.75;;;5.50;99.90;;;;;;6197513;23;20334;-76
2022/12/04 00:28:50;;;;;;;47.95;19.75;;;5.50;99.90;;;;;;6198153;23;20017;-76
2022/12/04 00:31:21;;;;;;;41.95;19.20;;;5.50;99.90;;;;;;6186214;23;20009;-76
2022/12/04 00:33:49;;;;;;;42.28;18.60;;;5.50;99.90;;;;;;6197990;23;20009;-76
2022/12/04 00:36:19;;;;;;;43.28;19.45;;;6.50;99.90;;;;;;6160549;23;20032;-76
2022/12/04 00:38:47;;;;;;;48.75;20.48;;;5.70;99.90;;;;;;6187395;23;20017;-76
2022/12/04 00:41:18;;;;;;;48.40;20.08;;;5.50;99.90;;;;;;6187633;23;20452;-75
2022/12/04 00:43:46;;;;;;;42.45;20.05;;;5.50;99.90;;;;;;6186603;23;20326;-75
2022/12/04 00:46:13;;;;;;;51.00;21.00;;;5.40;99.90;;;;;;6197395;23;20310;-76
2022/12/04 00:48:42;;;;;;;42.22;18.75;;;5.40;99.90;;;;;;6187586;23;20020;-75
2022/12/04 00:51:14;;;;;;;;;;;5.40;99.90;;;;;;6160839;23;20020;-75
2022/12/04 00:53:42;;;;;;;43.20;19.17;;;5.40;99.90;;;;;;6172379;23;19916;-76
2022/12/04 00:56:13;;;;;;;40.42;18.10;;;5.40;99.90;;;;;;6136002;23;20035;-76
2022/12/04 00:58:41;;;;;;;41.95;19.88;;;5.40;99.90;;;;;;6171576;23;20013;-76
2022/12/04 01:01:12;;;;;;;40.45;19.13;;;6.10;99.90;;;;;;6187696;23;20024;-76
2022/12/04 01:03:40;;;;;;;43.88;20.50;;;5.40;99.90;;;;;;6135479;23;20021;-75
2022/12/04 01:06:16;;;;;;;;;;;5.40;99.90;;;;;;6162588;23;20022;-75
2022/12/04 01:08:44;;;;;;;43.85;19.25;;;5.30;99.90;;;;;;6171513;23;20210;-76
2022/12/04 01:11:11;;;;;;;43.75;20.02;;;5.40;99.90;;;;;;6160216;23;20310;-76
2022/12/04 01:13:39;;;;;;;46.15;20.77;;;5.30;99.90;;;;;;6187495;23;20064;-76
2022/12/04 01:16:07;;;;;;;46.83;20.67;;;7.30;99.90;;;;;;6169925;23;20020;-75
2022/12/04 01:18:34;;;;;;;38.53;18.63;;;5.40;99.90;;;;;;6187428;23;20032;-76
2022/12/04 01:21:02;;;;;;;48.72;20.58;;;5.40;99.90;;;;;;6137558;23;20036;-75
2022/12/04 01:23:29;;;;;;;46.22;19.40;;;5.40;99.90;;;;;;6159165;23;20458;-75
2022/12/04 01:25:58;;;;;;;45.17;20.58;;;5.40;99.90;;;;;;6197603;23;20009;-76
2022/12/04 01:28:25;;;;;;;42.58;19.02;;;5.40;99.90;;;;;;6187289;23;20009;-75
2022/12/04 01:31:03;;;;;;;44.33;19.77;;;5.40;99.90;;;;;;6185950;23;20300;-75
2022/12/04 01:33:32;;;;;;;46.53;20.75;;;5.40;99.90;;;;;;6172001;23;20296;-76
2022/12/04 01:36:02;;;;;;;47.55;20.85;;;5.40;99.90;;;;;;6196495;23;20013;-75
2022/12/04 01:38:29;;;;;;;48.75;20.55;;;7.20;99.90;;;;;;6161605;23;20082;-75
2022/12/04 01:40:57;;;;;;;41.83;19.98;;;5.40;99.90;;;;;;6187324;23;20036;-76
2022/12/04 01:43:27;;;;;;;43.85;19.65;;;6.30;99.90;;;;;;6185865;23;20040;-76
2022/12/04 01:45:57;;;;;;;45.67;20.45;;;5.40;99.90;;;;;;6197510;23;20013;-76
2022/12/04 01:48:29;;;;;;;42.20;19.48;;;5.40;99.90;;;;;;6161303;23;20017;-76
2022/12/04 01:51:03;;;;;;;41.78;19.60;;;6.10;99.90;;;;;;6160112;23;20017;-76
2022/12/04 01:53:33;;;;;;;47.70;19.85;;;5.40;99.90;;;;;;6171410;23;20013;-75
2022/12/04 01:56:03;;;;;;;47.38;20.77;;;5.40;99.90;;;;;;6191213;23;20021;-76
2022/12/04 01:58:35;;;;;;;44.67;20.02;;;5.30;99.90;;;;;;6188546;23;20028;-75
2022/12/04 02:01:06;;;;;;;41.95;20.85;;;6.30;99.90;;;;;;6199502;23;20058;-75
2022/12/04 02:03:36;;;;;;;46.35;21.17;;;5.40;99.90;;;;;;6161874;23;20036;-75
2022/12/04 02:06:05;;;;;;;49.05;21.38;;;6.00;99.90;;;;;;6173095;23;20020;-75
2022/12/04 02:08:34;;;;;;;46.33;22.23;;;5.40;99.90;;;;;;6188937;23;20318;-76
2022/12/04 02:11:24;;;;;;;51.65;21.70;;;5.40;99.90;;;;;;6187616;23;20031;-75
2022/12/04 02:14:14;;;;;;;52.83;22.05;;;5.30;99.90;;;;;;6155181;23;20089;-76
2022/12/04 02:16:54;;;;;;;47.85;21.95;;;5.40;99.90;;;;;;6162306;23;20449;-76
2022/12/04 02:19:43;;;;;;;49.40;21.25;;;5.30;99.90;;;;;;6173674;23;20017;-76
2022/12/04 02:22:44;;;;;;;45.13;19.73;;;5.30;99.90;;;;;;6197681;23;20322;-76
2022/12/04 02:25:26;;;;;;;47.72;19.70;;;5.40;99.90;;;;;;6189028;23;20017;-76
2022/12/04 02:27:58;;;;;;;48.35;21.15;;;5.30;99.90;;;;;;6198734;23;20009;-75
2022/12/04 02:30:29;;;;;;;47.10;21.90;;;5.30;99.90;;;;;;6171980;23;20021;-75
2022/12/04 02:33:02;;;;;;;45.85;21.25;;;6.30;99.90;;;;;;6198765;23;20318;-76
2022/12/04 02:35:37;;;;;;;46.90;22.35;;;7.10;99.90;;;;;;6198512;23;20013;-76
2022/12/04 02:38:32;;;;;;;51.95;22.20;;;6.80;99.90;;;;;;6197278;23;20013;-76
2022/12/04 02:41:43;;;;;;;52.85;23.05;;;5.30;99.90;;;;;;6162954;23;20017;-75
2022/12/04 02:44:20;;;;;;;49.72;22.92;;;5.30;99.90;;;;;;6068069;23;20035;-76
2022/12/04 02:46:54;;;;;;;48.00;22.92;;;5.30;99.90;;;;;;6128353;23;20441;-76
2022/12/04 02:49:37;;;;;;;48.15;22.30;;;5.30;99.90;;;;;;6197572;23;20009;-75
2022/12/04 02:52:11;;;;;;;47.90;23.38;;;5.30;99.90;;;;;;6172772;23;20016;-76
2022/12/04 02:54:44;;;;;;;52.65;23.55;;;5.30;99.90;;;;;;6172782;23;20020;-76
2022/12/04 02:57:19;;;;;;;52.92;25.13;;;5.30;99.90;;;;;;6188809;23;20461;-76
2022/12/04 02:59:49;;;;;;;52.50;24.35;;;5.30;99.90;;;;;;6138294;23;20032;-76
2022/12/04 03:02:24;;;;;;;51.78;24.63;;;5.30;99.90;;;;;;6188350;23;20024;-76
2022/12/04 03:04:54;;;;;;;55.25;23.92;;;5.30;99.90;;;;;;6197078;23;20017;-75
2022/12/04 03:07:33;;;;;;;54.72;24.33;;;5.30;99.90;;;;;;6172375;23;20020;-75
2022/12/04 03:10:14;;;;;;;54.53;23.67;;;5.30;99.90;;;;;;6161131;23;20017;-76
2022/12/04 03:13:01;;;;;;;52.80;24.17;;;5.30;99.90;;;;;;6198443;23;20009;-77
2022/12/04 03:16:02;;;;;;;54.40;23.40;;;5.30;99.90;;;;;;6188814;23;20013;-77
2022/12/04 03:18:36;;;;;;;50.92;23.63;;;5.20;99.90;;;;;;6143145;23;20032;-76
2022/12/04 03:21:09;;;;;;;48.70;23.92;;;5.20;99.90;;;;;;6198422;23;20024;-75
2022/12/04 03:23:45;;;;;;;54.08;24.83;;;5.20;99.90;;;;;;6171256;23;20021;-76
2022/12/04 03:26:36;;;;;;;51.15;24.33;;;5.20;99.90;;;;;;6198746;23;20009;-76
2022/12/04 03:29:28;;;;;;;52.95;23.23;;;5.20;99.90;;;;;;6172498;23;20013;-76
2022/12/04 03:32:25;;;;;;;55.40;24.23;;;5.20;99.90;;;;;;6172340;23;20020;-76
2022/12/04 03:35:00;;;;;;;60.20;26.10;;;5.20;99.90;;;;;;6140099;23;20028;-76
2022/12/04 03:37:43;;;;;;;57.00;24.92;;;5.20;99.90;;;;;;6161062;23;20441;-76
2022/12/04 03:40:22;;;;;;;61.13;26.67;;;5.20;99.90;;;;;;6198313;23;20013;-76
2022/12/04 03:43:04;;;;;;;63.88;26.77;;;5.20;99.90;;;;;;6160660;23;20048;-76
2022/12/04 03:45:40;;;;;;;63.28;27.40;;;5.40;99.90;;;;;;6198214;23;20061;-75
2022/12/04 03:48:33;;;;;;;60.50;27.17;;;5.10;99.90;;;;;;6172168;23;20318;-76
2022/12/04 03:51:07;;;;;;;56.17;25.60;;;5.10;99.90;;;;;;6160852;23;20009;-75
2022/12/04 03:53:51;;;;;;;57.08;26.48;;;5.10;99.90;;;;;;6172575;23;20013;-76
2022/12/04 03:56:26;;;;;;;61.15;25.98;;;5.30;99.90;;;;;;6192169;23;20278;-76
2022/12/04 03:59:08;;;;;;;59.38;27.80;;;6.30;99.90;;;;;;6197821;23;20009;-76
2022/12/04 04:01:41;;;;;;;64.22;28.05;;;5.10;99.90;;;;;;6197818;23;20009;-76
2022/12/04 04:04:14;;;;;;;62.75;28.52;;;6.10;99.90;;;;;;6160927;23;20449;-76
2022/12/04 04:06:48;;;;;;;67.88;29.55;;;5.00;99.90;;;;;;6137539;23;20017;-75
2022/12/04 04:09:20;;;;;;;62.30;27.88;;;5.10;99.90;;;;;;6197694;23;20448;-75
2022/12/04 04:12:12;;;;;;;66.80;29.17;;;5.00;99.90;;;;;;6162565;23;20027;-76
2022/12/04 04:26:21;;;;;;;66.70;29.73;;;5.10;99.90;;;;;;6162324;23;20028;-76
2022/12/04 04:28:48;;;;;;;68.97;30.10;;;6.40;99.90;;;;;;6137352;23;20426;-76
2022/12/04 04:31:35;;;;;;;73.32;32.83;;;5.20;99.90;;;;;;6160513;23;20296;-75
2022/12/04 04:34:24;;;;;;;71.28;31.20;;;5.10;99.90;;;;;;6197496;23;20009;-76
2022/12/04 04:37:03;;;;;;;72.95;31.52;;;5.10;99.90;;;;;;6186332;23;20315;-76
2022/12/04 04:39:43;;;;;;;76.75;33.38;;;5.10;99.90;;;;;;6147188;23;20013;-76
2022/12/04 04:42:21;;;;;;;77.05;32.90;;;5.10;99.90;;;;;;6197656;23;20013;-76
2022/12/04 04:45:06;;;;;;;76.13;31.85;;;5.10;99.90;;;;;;6196070;23;20020;-76
2022/12/04 04:47:44;;;;;;;84.78;34.28;;;5.10;99.90;;;;;;6162038;23;20013;-75
2022/12/04 04:50:13;;;;;;;78.57;33.50;;;5.10;99.90;;;;;;6170749;23;20009;-76
2022/12/04 04:52:46;;;;;;;76.95;33.42;;;5.10;99.90;;;;;;6137068;23;20028;-76
2022/12/04 04:55:16;;;;;;;79.05;34.15;;;6.70;99.90;;;;;;6137038;23;20018;-75
2022/12/04 04:57:44;;;;;;;74.75;32.53;;;5.10;99.90;;;;;;6196236;23;20021;-76
2022/12/04 05:00:21;;;;;;;70.65;32.92;;;5.10;99.90;;;;;;6137110;23;20020;-76
2022/12/04 05:02:49;;;;;;;77.80;32.92;;;5.10;99.90;;;;;;6196442;23;20181;-75
2022/12/04 05:05:17;;;;;;;73.78;31.63;;;5.10;99.90;;;;;;6161907;23;20013;-75
2022/12/04 05:07:44;;;;;;;75.10;33.10;;;6.40;99.90;;;;;;6136859;23;20021;-76
2022/12/04 05:10:12;;;;;;;80.25;34.15;;;6.10;99.90;;;;;;6186152;23;20016;-76
2022/12/04 05:12:40;;;;;;;83.68;34.15;;;5.70;99.90;;;;;;6186405;23;20013;-76
2022/12/04 05:15:08;;;;;;;78.93;35.10;;;5.10;99.90;;;;;;6187890;23;20020;-76
2022/12/04 05:17:36;;;;;;;73.78;32.63;;;5.10;99.90;;;;;;6196588;23;20013;-76
2022/12/04 05:20:04;;;;;;;78.68;34.63;;;5.10;99.90;;;;;;6161329;23;20021;-76
2022/12/04 05:22:34;;;;;;;76.00;33.10;;;5.10;99.90;;;;;;6186274;23;20017;-76
2022/12/04 05:25:02;;;;;;;77.82;32.97;;;5.10;99.90;;;;;;6160380;23;20028;-75
2022/12/04 05:27:31;;;;;;;76.10;33.25;;;5.10;99.90;;;;;;6171716;23;20036;-75
2022/12/04 05:29:59;;;;;;;78.13;34.10;;;5.30;99.90;;;;;;6186003;23;20013;-75
2022/12/04 05:32:28;;;;;;;76.53;34.08;;;5.10;99.90;;;;;;6188077;23;20009;-76
2022/12/04 05:34:56;;;;;;;85.13;35.08;;;5.10;99.90;;;;;;6163232;23;20323;-76
2022/12/04 05:37:24;;;;;;;82.95;33.78;;;5.10;99.90;;;;;;6162329;23;20430;-76
2022/12/04 05:39:52;;;;;;;76.72;33.88;;;5.10;99.90;;;;;;6189334;23;20322;-75
2022/12/04 05:42:20;;;;;;;82.72;34.20;;;5.20;99.90;;;;;;6189235;23;20021;-75
2022/12/04 05:44:49;;;;;;;82.30;35.15;;;5.20;99.90;;;;;;6137477;23;20021;-76
2022/12/04 05:47:16;;;;;;;86.15;36.53;;;5.40;99.90;;;;;;6163033;23;20016;-75
2022/12/04 05:49:44;;;;;;;88.57;35.08;;;5.20;99.90;;;;;;6188406;23;20013;-75
2022/12/04 05:52:12;;;;;;;77.57;32.72;;;5.20;99.90;;;;;;6189290;23;20024;-76
2022/12/04 05:54:39;;;;;;;74.25;33.45;;;5.20;99.90;;;;;;6138627;23;20017;-75
2022/12/04 05:57:07;;;;;;;73.45;32.92;;;5.40;99.90;;;;;;6189780;23;20036;-75
2022/12/04 05:59:35;;;;;;;65.22;31.00;;;6.80;99.90;;;;;;6189165;23;20291;-75
2022/12/04 06:02:03;;;;;;;76.63;32.13;;;5.20;99.90;;;;;;6189096;23;20024;-75
2022/12/04 06:04:31;;;;;;;69.75;32.13;;;5.20;99.90;;;;;;6162280;23;20314;-76
2022/12/04 06:06:58;;;;;;;69.38;31.45;;;5.20;99.90;;;;;;6163427;23;20070;-76
2022/12/04 06:09:26;;;;;;;73.65;33.20;;;5.20;99.90;;;;;;6136995;23;20017;-76
2022/12/04 06:11:56;;;;;;;69.47;32.40;;;5.20;99.90;;;;;;6189003;23;20029;-75
2022/12/04 06:14:24;;;;;;;66.15;30.73;;;5.20;99.90;;;;;;6162838;23;20024;-76
2022/12/04 06:16:52;;;;;;;63.83;30.67;;;5.20;99.90;;;;;;6172568;23;20288;-76
2022/12/04 06:19:21;;;;;;;67.13;31.85;;;5.20;99.90;;;;;;6189018;23;20445;-75
2022/12/04 06:21:51;;;;;;;68.90;31.30;;;5.30;99.90;;;;;;6187789;23;20039;-76
2022/12/04 06:24:23;;;;;;;68.18;30.85;;;5.20;99.90;;;;;;6161531;23;20334;-76
2022/12/04 06:26:56;;;;;;;66.97;30.95;;;5.20;99.90;;;;;;6197671;23;20422;-76
2022/12/04 06:29:43;;;;;;;62.13;29.42;;;6.20;99.90;;;;;;6197437;23;20323;-75
2022/12/04 06:32:11;;;;;;;64.78;30.98;;;5.20;99.90;;;;;;6189021;23;20441;-76
2022/12/04 06:34:44;;;;;;;60.63;29.55;;;7.40;99.90;;;;;;6198718;23;20017;-77
2022/12/04 06:37:12;;;;;;;61.05;30.27;;;6.30;99.90;;;;;;6197347;23;20430;-76
2022/12/04 06:39:39;;;;;;;70.38;31.13;;;4.10;99.90;;;;;;6162923;23;20021;-76
2022/12/04 06:42:06;;;;;;;74.25;31.58;;;5.10;99.90;;;;;;6188827;23;20024;-76
2022/12/04 06:44:34;;;;;;;69.05;29.20;;;7.30;99.90;;;;;;6187080;23;20020;-75
2022/12/04 06:47:02;;;;;;;64.78;27.27;;;6.00;99.90;;;;;;6162946;23;20426;-75
2022/12/04 06:49:29;;;;;;;65.93;29.45;;;6.10;99.90;;;;;;6137083;23;20323;-75
2022/12/04 06:51:57;;;;;;;60.03;27.58;;;5.10;99.90;;;;;;6163460;23;20013;-75
2022/12/04 06:54:27;;;;;;;60.45;27.08;;;5.10;99.90;;;;;;6163232;23;20013;-75
2022/12/04 06:56:54;;;;;;;63.95;27.58;;;5.10;99.90;;;;;;6161309;23;20021;-76
2022/12/04 06:59:22;;;;;;;61.35;27.75;;;5.10;99.90;;;;;;6162930;23;20024;-77
2022/12/04 07:01:50;;;;;;;;;;;5.10;99.90;;;;;;6163433;23;20021;-76
2022/12/04 07:04:17;;;;;;;58.42;24.90;;;5.10;99.90;;;;;;6136544;23;19916;-75
2022/12/04 07:06:45;;;;;;;55.20;25.13;;;5.10;99.90;;;;;;6198949;23;20017;-75
2022/12/04 07:09:14;;;;;;;58.03;25.85;;;5.00;99.90;;;;;;6188890;23;20009;-76
2022/12/04 07:11:43;;;;;;;57.00;26.80;;;5.70;99.90;;;;;;6161047;23;20315;-75
2022/12/04 07:14:13;;;;;;;53.28;25.88;;;5.00;99.90;;;;;;6188290;23;20042;-75
2022/12/04 07:16:41;;;;;;;53.17;25.63;;;5.00;99.90;;;;;;6196899;23;20009;-74
2022/12/04 07:19:11;;;;;;;53.53;25.48;;;5.00;99.90;;;;;;6188986;23;20152;-76
2022/12/04 07:21:40;;;;;;;52.50;24.63;;;6.10;99.90;;;;;;6198609;23;20314;-76
2022/12/04 07:24:12;;;;;;;;;;;5.10;99.90;;;;;;6187507;23;20040;-75
2022/12/04 07:26:39;;;;;;;51.90;24.35;;;5.00;99.90;;;;;;6172513;23;20097;-76
2022/12/04 07:29:07;;;;;;;58.83;26.52;;;5.00;99.90;;;;;;6188250;23;20020;-75
2022/12/04 07:31:35;;;;;;;51.25;24.55;;;5.00;99.90;;;;;;6186983;23;20020;-75
2022/12/04 07:34:02;;;;;;;55.90;26.08;;;5.00;99.90;;;;;;6187679;23;20013;-76
2022/12/04 07:36:30;;;;;;;52.15;24.77;;;5.00;99.90;;;;;;6171277;23;20445;-76
2022/12/04 07:38:57;;;;;;;54.38;23.95;;;5.00;99.90;;;;;;6188443;23;20017;-76
2022/12/04 07:41:25;;;;;;;57.33;25.25;;;5.00;99.90;;;;;;6188188;23;20013;-76
2022/12/04 07:43:53;;;;;;;53.13;23.52;;;5.00;99.90;;;;;;6160612;23;20021;-76
2022/12/04 07:46:24;;;;;;;51.88;23.98;;;6.00;99.90;;;;;;6162918;23;20318;-75
2022/12/04 07:48:55;;;;;;;53.97;24.52;;;6.00;99.90;;;;;;6162570;23;20013;-76
2022/12/04 07:51:25;;;;;;;50.15;24.00;;;5.00;99.90;;;;;;6160903;23;20017;-75
2022/12/04 07:53:53;;;;;;;59.47;27.80;;;5.00;99.90;;;;;;6187860;23;20028;-76
2022/12/04 07:56:20;;;;;;;;;;;5.00;99.90;;;;;;6136383;23;20055;-76
2022/12/04 07:58:48;;;;;;;61.78;27.90;;;5.00;99.90;;;;;;6162914;23;19916;-75
2022/12/04 08:01:19;;;;;;;54.65;24.77;;;6.30;99.90;;;;;;6188450;23;20426;-75
2022/12/04 08:03:50;;;;;;;78.40;33.85;;;5.30;99.90;;;;;;6185748;23;20430;-75
2022/12/04 08:06:20;;;;;;;70.25;32.33;;;5.00;99.90;;;;;;6196715;23;20012;-76
2022/12/04 08:08:48;;;;;;;55.67;26.10;;;5.40;99.90;;;;;;6161750;23;20460;-76
2022/12/04 08:11:18;;;;;;;;;;;5.00;99.90;;;;;;6161286;23;20024;-75
2022/12/04 08:13:45;;;;;;;58.17;26.65;;;5.00;99.90;;;;;;6162059;23;19965;-76
2022/12/04 08:16:14;;;;;;;53.85;24.95;;;5.00;99.90;;;;;;6196530;23;20013;-76
2022/12/04 08:18:45;;;;;;;49.10;22.10;;;5.10;99.90;;;;;;6162085;23;20024;-76
2022/12/04 08:21:19;;;;;;;43.33;21.35;;;5.40;99.90;;;;;;6197622;23;20013;-75
2022/12/04 08:23:49;;;;;;;48.72;22.77;;;5.00;99.90;;;;;;6196279;23;20020;-76
2022/12/04 08:26:18;;;;;;;49.58;24.35;;;5.50;99.90;;;;;;6172331;23;20028;-76
2022/12/04 08:28:46;;;;;;;50.58;22.42;;;5.00;99.90;;;;;;6162278;23;20017;-75
2022/12/04 08:31:18;;;;;;;40.78;19.83;;;6.10;99.90;;;;;;6160637;23;20014;-76
2022/12/04 08:33:47;;;;;;;47.17;21.13;;;5.10;99.90;;;;;;6186411;23;20024;-75
2022/12/04 08:36:18;;;;;;;43.53;20.13;;;5.40;99.90;;;;;;6161041;23;20017;-76
2022/12/04 08:38:49;;;;;;;38.83;19.25;;;5.10;99.90;;;;;;6197319;23;20013;-77
2022/12/04 08:41:21;;;;;;;38.30;19.20;;;5.10;99.90;;;;;;6197376;23;20013;-77
2022/12/04 08:43:53;;;;;;;48.72;22.77;;;7.50;99.90;;;;;;6170050;23;20020;-77
2022/12/04 08:46:22;;;;;;;40.03;17.35;;;5.80;99.90;;;;;;6197364;23;20041;-77
2022/12/04 08:48:50;;;;;;;34.85;16.77;;;6.60;99.90;;;;;;6161644;23;20013;-77
2022/12/04 08:51:20;;;;;;;37.05;16.95;;;5.10;99.90;;;;;;6160031;23;20017;-77
2022/12/04 08:53:51;;;;;;;38.20;18.63;;;5.10;99.90;;;;;;6187792;23;20024;-77
2022/12/04 08:56:19;;;;;;;35.25;17.58;;;5.10;99.90;;;;;;6160118;23;20186;-76
2022/12/04 08:58:47;;;;;;;35.97;17.48;;;6.80;99.90;;;;;;6186135;23;20017;-76
2022/12/04 09:01:15;;;;;;;37.70;18.20;;;5.80;99.90;;;;;;6161865;23;20021;-77
2022/12/04 09:03:45;;;;;;;;;;;5.10;99.90;;;;;;6185746;23;20017;-77
2022/12/04 09:06:15;;;;;;;37.65;16.92;;;5.10;99.90;;;;;;6172229;23;19916;-77
2022/12/04 09:08:43;;;;;;;36.88;17.42;;;5.20;99.90;;;;;;6160849;23;20020;-77
2022/12/04 09:11:14;;;;;;;35.40;18.35;;;7.10;99.90;;;;;;6159834;23;20027;-77
2022/12/04 09:13:43;;;;;;;36.97;17.70;;;6.40;99.90;;;;;;6161312;23;20028;-78
2022/12/04 09:16:17;;;;;;;37.95;18.38;;;7.60;99.90;;;;;;6195828;23;20025;-78
2022/12/04 09:18:45;;;;;;;38.95;18.50;;;5.70;99.90;;;;;;6171300;23;20013;-78
2022/12/04 09:21:14;;;;;;;37.95;18.02;;;7.10;99.90;;;;;;6187019;23;20017;-79
2022/12/04 09:23:42;;;;;;;41.17;19.02;;;5.60;99.90;;;;;;6185566;23;20020;-79
2022/12/04 09:26:21;;;;;;;36.38;18.17;;;5.40;99.90;;;;;;6161054;23;20028;-79
2022/12/04 09:28:49;;;;;;;39.58;18.50;;;5.20;99.90;;;;;;6196845;23;20323;-78
2022/12/04 09:31:18;;;;;;;34.30;18.13;;;5.20;99.90;;;;;;6159852;23;20010;-79
2022/12/04 09:33:46;;;;;;;44.47;19.60;;;5.20;99.90;;;;;;6161364;23;20013;-79
2022/12/04 09:36:17;;;;;;;44.78;18.88;;;5.30;99.90;;;;;;6169646;23;20016;-79
2022/12/04 09:38:47;;;;;;;42.40;19.65;;;5.30;99.90;;;;;;6186607;23;20016;-78
2022/12/04 09:41:23;;;;;;;45.20;20.85;;;5.30;99.90;;;;;;6196682;23;20306;-77
2022/12/04 09:43:57;;;;;;;40.60;19.30;;;5.30;99.90;;;;;;6159438;23;20310;-78
2022/12/04 09:46:31;;;;;;;43.25;19.25;;;5.30;99.90;;;;;;6196943;23;20024;-78
2022/12/04 09:49:03;;;;;;;40.40;20.70;;;5.30;99.90;;;;;;6170647;23;20013;-79
2022/12/04 09:51:33;;;;;;;42.95;19.30;;;5.30;99.90;;;;;;6169474;23;20032;-79
2022/12/04 09:54:13;;;;;;;42.63;20.45;;;6.80;99.90;;;;;;6161720;23;20017;-77
2022/12/04 09:56:45;;;;;;;44.53;20.33;;;5.30;99.90;;;;;;6159859;23;20021;-79
2022/12/04 09:59:24;;;;;;;40.67;20.77;;;7.40;99.90;;;;;;6196767;23;20028;-76
2022/12/04 10:02:11;;;;;;;45.70;20.50;;;5.30;99.90;;;;;;6171625;23;20434;-78
2022/12/04 10:04:41;;;;;;;43.67;21.25;;;5.30;99.90;;;;;;6135735;23;20460;-75
2022/12/04 10:07:15;;;;;;;46.88;20.63;;;5.30;99.90;;;;;;6197117;23;20017;-76
2022/12/04 10:10:16;;;;;;;44.20;20.73;;;7.60;99.90;;;;;;6170216;23;20065;-77
2022/12/04 10:13:24;;;;;;;45.25;22.25;;;5.40;99.90;;;;;;6161586;23;20469;-76
2022/12/04 10:15:54;;;;;;;45.40;21.90;;;5.40;99.90;;;;;;6186897;23;20017;-75
2022/12/04 10:18:28;;;;;;;45.72;21.15;;;5.40;99.90;;;;;;6195531;23;20020;-78
2022/12/04 10:21:24;;;;;;;42.13;20.65;;;6.80;99.90;;;;;;6138056;23;20442;-76
2022/12/04 10:24:15;;;;;;;48.47;22.45;;;6.60;99.90;;;;;;6197307;23;20461;-78
2022/12/04 10:26:47;;;;;;;47.88;22.70;;;5.40;99.90;;;;;;6173502;23;20307;-77
2022/12/04 10:29:29;;;;;;;49.40;22.92;;;6.10;99.90;;;;;;6163165;23;20028;-77
2022/12/04 10:32:17;;;;;;;48.35;22.70;;;5.60;99.90;;;;;;6162875;23;20013;-76
2022/12/04 10:34:47;;;;;;;44.03;21.00;;;5.60;99.90;;;;;;6172587;23;20013;-76
2022/12/04 10:37:14;;;;;;;46.08;23.23;;;5.70;99.90;;;;;;6197266;23;20013;-77
2022/12/04 10:39:53;;;;;;;48.17;22.10;;;5.70;99.90;;;;;;6163012;23;20032;-76
2022/12/04 10:42:36;;;;;;;47.45;21.00;;;5.70;99.90;;;;;;6198707;23;20036;-77
2022/12/04 10:45:05;;;;;;;40.30;18.15;;;5.70;99.90;;;;;;6196012;23;20337;-77
2022/12/04 10:47:37;;;;;;;35.47;18.48;;;5.70;99.90;;;;;;6163252;23;20017;-76
2022/12/04 10:50:18;;;;;;;32.75;16.52;;;5.70;99.90;;;;;;6171279;23;20009;-77
2022/12/04 10:52:45;;;;;;;33.95;16.92;;;5.70;99.90;;;;;;6198481;23;20445;-76
2022/12/04 10:55:14;;;;;;;31.60;16.08;;;5.80;99.90;;;;;;6188499;23;20020;-78
2022/12/04 10:57:45;;;;;;;29.80;15.77;;;7.30;99.90;;;;;;6171196;23;20016;-76
2022/12/04 11:00:32;;;;;;;33.03;16.70;;;5.80;99.90;;;;;;6138579;23;20025;-76
2022/12/04 11:03:02;;;;;;;26.40;14.60;;;5.90;99.90;;;;;;6197442;23;20309;-76
2022/12/04 11:05:33;;;;;;;29.13;15.73;;;7.90;99.90;;;;;;6172792;23;20017;-76
2022/12/04 11:08:05;;;;;;;26.60;14.30;;;7.50;99.90;;;;;;6188196;23;20020;-77
2022/12/04 11:10:39;;;;;;;27.33;14.65;;;5.90;99.90;;;;;;6196855;23;20028;-77
2022/12/04 11:13:09;;;;;;;27.70;14.10;;;5.90;99.90;;;;;;6172551;23;20020;-76
2022/12/04 11:15:49;;;;;;;25.90;13.55;;;5.90;99.90;;;;;;6172734;23;20016;-75
2022/12/04 11:18:45;;;;;;;23.52;13.00;;;7.20;99.90;;;;;;6196868;23;20010;-77
2022/12/04 11:21:16;;;;;;;27.40;13.50;;;6.00;99.90;;;;;;6198562;23;20441;-77
2022/12/04 11:23:49;;;;;;;25.10;12.77;;;6.00;99.90;;;;;;6137155;23;20028;-77
2022/12/04 11:26:32;;;;;;;29.13;13.80;;;6.00;99.90;;;;;;6198200;23;20013;-77
2022/12/04 11:29:00;;;;;;;25.10;13.40;;;6.00;99.90;;;;;;6172081;23;20024;-75
2022/12/04 11:31:30;;;;;;;30.38;13.93;;;7.40;99.90;;;;;;6160785;23;20013;-76
2022/12/04 11:34:02;;;;;;;27.30;14.27;;;6.00;99.90;;;;;;6188203;23;20020;-76
2022/12/04 11:36:33;;;;;;;26.63;12.80;;;6.90;99.90;;;;;;6161221;23;20449;-75
2022/12/04 11:39:17;;;;;;;26.77;13.43;;;6.00;99.90;;;;;;6172480;23;20009;-74
2022/12/04 11:41:45;;;;;;;29.63;13.80;;;6.30;99.90;;;;;;6172056;23;20020;-75
2022/12/04 11:44:27;;;;;;;26.52;13.80;;;6.90;99.90;;;;;;6161061;23;20028;-76
2022/12/04 11:47:01;;;;;;;25.95;13.43;;;6.10;99.90;;;;;;6171955;23;20024;-76
2022/12/04 11:49:31;;;;;;;28.50;13.73;;;6.10;99.90;;;;;;6136183;23;20075;-75
2022/12/04 11:52:36;;;;;;;27.15;14.02;;;6.10;99.90;;;;;;6187940;23;20321;-75
2022/12/04 11:55:17;;;;;;;30.58;13.85;;;6.10;99.90;;;;;;6161912;23;20020;-74
2022/12/04 11:57:56;;;;;;;31.45;15.63;;;6.10;99.90;;;;;;6136059;23;20028;-75
2022/12/04 12:00:25;;;;;;;29.67;15.20;;;6.10;99.90;;;;;;6162490;23;20017;-74
2022/12/04 12:03:15;;;;;;;31.58;14.45;;;6.10;99.90;;;;;;6136659;23;20330;-74
2022/12/04 12:05:58;;;;;;;29.02;14.95;;;6.10;99.90;;;;;;6188499;23;20017;-75
2022/12/04 12:08:36;;;;;;;31.08;14.88;;;6.20;99.90;;;;;;6171798;23;20017;-75
2022/12/04 12:11:15;;;;;;;27.65;14.90;;;6.20;99.90;;;;;;6196410;23;20016;-76
2022/12/04 12:14:07;;;;;;;28.92;14.50;;;8.30;99.90;;;;;;6162304;23;20021;-77
2022/12/04 12:16:52;;;;;;;29.17;13.88;;;6.20;99.90;;;;;;6136079;23;20318;-77
2022/12/04 12:19:23;;;;;;;27.98;14.32;;;6.20;99.90;;;;;;6172424;23;20013;-75
2022/12/04 12:22:07;;;;;;;27.63;14.30;;;6.20;99.90;;;;;;6161985;23;20017;-75
2022/12/04 12:24:53;;;;;;;24.67;13.02;;;6.20;99.90;;;;;;6170533;23;20020;-75
2022/12/04 12:28:04;;;;;;;26.33;14.55;;;6.20;99.90;;;;;;6162451;23;20040;-75
2022/12/04 12:30:51;;;;;;;29.92;14.15;;;6.30;99.90;;;;;;6196800;23;20009;-76
2022/12/04 12:33:23;;;;;;;27.92;14.35;;;7.60;99.90;;;;;;6187566;23;20024;-71
2022/12/04 12:36:11;;;;;;;27.65;14.93;;;6.30;99.90;;;;;;6197750;23;20009;-76
2022/12/04 12:39:14;;;;;;;30.17;15.57;;;6.20;99.90;;;;;;6137622;23;20013;-75
2022/12/04 12:41:48;;;;;;;27.92;15.02;;;6.30;99.90;;;;;;6084744;23;20319;-77
2022/12/04 12:44:33;;;;;;;27.60;15.13;;;6.40;99.90;;;;;;6185625;23;20013;-76
2022/12/04 12:47:15;;;;;;;31.58;15.68;;;6.30;99.90;;;;;;6197938;23;20013;-76
2022/12/04 12:50:03;;;;;;;29.63;14.75;;;6.30;99.90;;;;;;6160618;23;20017;-75
2022/12/04 12:52:56;;;;;;;27.38;15.52;;;6.30;99.90;;;;;;6187683;23;20416;-77
2022/12/04 12:55:40;;;;;;;31.20;16.23;;;6.30;99.90;;;;;;6187308;23;20032;-76
2022/12/04 12:58:08;;;;;;;31.17;15.48;;;6.30;99.90;;;;;;6196241;23;20276;-76
2022/12/04 13:00:53;;;;;;;29.33;15.82;;;6.30;99.90;;;;;;6161852;23;20326;-76
2022/12/04 13:03:48;;;;;;;30.38;15.98;;;6.30;99.90;;;;;;6196642;23;20017;-75
2022/12/04 13:06:20;;;;;;;33.70;16.20;;;6.30;99.90;;;;;;6187484;23;20020;-76
2022/12/04 13:09:15;;;;;;;29.65;14.93;;;7.70;99.90;;;;;;6197237;23;20017;-76
2022/12/04 13:11:48;;;;;;;33.38;15.32;;;6.70;99.90;;;;;;6196626;23;20009;-77
2022/12/04 13:14:19;;;;;;;32.05;15.02;;;6.30;99.90;;;;;;6171169;23;20013;-76
2022/12/04 13:17:10;;;;;;;34.28;16.23;;;7.00;99.90;;;;;;6196115;23;20013;-75
2022/12/04 13:19:45;;;;;;;32.08;14.82;;;6.30;99.90;;;;;;6197201;23;20476;-75
2022/12/04 13:22:17;;;;;;;36.75;16.02;;;6.30;99.90;;;;;;6137198;23;20028;-76
2022/12/04 13:25:06;;;;;;;27.15;14.07;;;7.60;99.90;;;;;;6170142;23;20017;-76
2022/12/04 13:27:47;;;;;;;30.30;13.85;;;6.30;99.90;;;;;;6187783;23;20017;-75